Friday, November 17, 2017, 9:13 PM GMT
Back to Local

CYMX, Montreal / Mirabel

Location: , , Canada Lat: 45.683
Local Time: 9:13 PM GMT (21:13 GMT) Lon: -74.033
Time Zone: GMT Elev: 269 ft

Show me the last for .
Show Coded

Time T Td Feel RH Dir Speed Gust Alt SLP Vis Weather Sky Remarks
2017-11-17 21:00 28 12 22 50 290° 6 - 30.07 30.09 45 FEW250 None
2017-11-17 20:00 30 14 24 50 290° 6 - 30.06 30.08 45 FEW030 FEW240 None
2017-11-17 19:00 30 14 22 50 260° 9 - 30.07 30.09 45 FEW030 FEW240 None
2017-11-17 18:00 30 14 18 50 270° 10 20 30.06 30.07 45 FEW034 None
2017-11-17 17:00 30 16 17 54 270° 9 21 30.05 30.07 45 FEW027 None
2017-11-17 16:00 28 14 15 54 310° 10 20 30.08 30.09 45 SCT031 None
2017-11-17 15:00 28 18 21 63 280° 7 - 30.08 30.10 45 SCT027 None
2017-11-17 14:00 27 18 13 68 290° 9 20 30.08 30.10 45 BKN024 None
2017-11-17 13:00 27 19 12 73 310° 9 22 30.07 30.08 45 BKN024 BKN035 None
2017-11-17 12:00 27 21 14 79 270° 6 17 30.03 30.05 35 BKN024 OVC035 None
2017-11-17 11:00 28 19 16 68 280° 7 17 29.99 30.01 25 FEW029 BKN035 None
2017-11-17 10:00 28 21 15 74 310° 14 22 29.96 29.98 25 OVC025 None
2017-11-17 09:00 30 21 16 68 280° 14 25 29.92 29.94 25 OVC023 None
2017-11-17 08:00 30 23 17 74 300° 10 21 29.89 29.90 25 BKN023 BKN040 OVC075 None
2017-11-17 07:00 32 23 20 68 310° 12 21 29.86 29.88 25 SCT023 BKN040 OVC075 None
2017-11-17 06:00 32 25 20 74 300° 12 21 29.82 29.83 25 FEW025 BKN040 OVC070 None
2017-11-17 05:00 34 27 22 74 300° 10 20 29.78 29.80 25 FEW022 SCT035 BKN050 OVC075 None
2017-11-17 04:00 36 28 24 74 300° 14 22 29.74 29.76 25 FEW007 SCT018 BKN035 BKN050 OVC065 None
2017-11-17 03:00 37 34 32 86 290° 7 - 29.72 29.73 25 FEW007 SCT018 BKN030 OVC045 None
2017-11-17 02:50 37 34 33 86 280° 6 - 29.71 29.72 25 FEW007 SCT018 BKN030 OVC045 None
2017-11-17 02:00 39 34 34 80 280° 7 - 29.68 29.70 25 -RA SCT007 BKN015 BKN030 OVC045 None
2017-11-17 01:00 41 39 37 93 240° 6 - 29.65 29.66 20 -RA BKN005 OVC019 None
2017-11-17 00:45 41 39 36 93 240° 7 - 29.65 29.66 20 -RA BKN007 OVC018 None
2017-11-17 00:00 41 39 37 93 230° 6 - 29.64 29.65 20 -RA SCT014 BKN021 OVC080 None
2017-11-16 23:00 41 39 36 93 220° 8 - 29.64 29.65 10 -RA BKN014 OVC021 None
2017-11-16 22:00 41 39 37 93 220° 6 - 29.63 29.65 10 BKN013 OVC020 None
2017-11-16 21:36 41 39 36 93 230° 7 - 29.63 29.65 10 -RA BKN012 OVC020 None

Support USWX by starting your Amazon purchase here.